Cotter, AR (72626)

4:24 PM CST on February 07, 2016 (GMT -0600)
Cotter White River Bluff | | Change Station
CLOSE
Current Station
Personal Weather Station
Location: Cotter, AR
Elevation: 535 ft
Nearby Weather Stations
Active Advisory: Lake Wind Advisory

Elev 535 ft 36.27 °N, 92.54 °W | Updated 11 minutes ago

Clear
Clear
57.7 °F
Feels Like 57.7 °F
N
6.0
Wind Variable Wind from WNW
Gusts 16.0 mph

Today
High -- | Low -- °F
--% Chance of Precip.
Yesterday
High -- | Low -- °F
Precip. -- in
Pressure 30.00 in
Visibility 10.0 miles
Clouds Clear
Dew Point 32 °F
Humidity 38%
Rainfall 0.00 in
Snow Depth Not available.
7:06 AM 5:42 PM
Waning Crescent, 1% visible
METAR KBPK 072153Z AUTO 29006G15KT 10SM CLR 12/M02 A2999 RMK AO2 SLP157 T01221022
Pressure 30.00 in
Visibility 10.0 miles
Clouds Clear
Dew Point 32 °F
Humidity 38%
Rainfall 0.00 in
Snow Depth Not available.
7:06 AM 5:42 PM
Waning Crescent, 1% visible
METAR KBPK 072153Z AUTO 29006G15KT 10SM CLR 12/M02 A2999 RMK AO2 SLP157 T01221022

10-Day Weather Forecast

Almanac

Astronomy

Feb. 07, 2016 Rise Set
Actual Time
Civil Twilight
Nautical Twilight
Astronomical Twilight
Moon
Length of Visible Light
Length of Day
Tomorrow will be .
, % of the Moon is Illuminated

Today's Extremes

State Highs State Lows

Community

WunderPhotos

Upload Photos

1,891,318 photos uploaded!

WunderBlog® & News

Nearby

Air Quality

  Air Quality AQ Index Pollutant
Not available.

Snow Depth

Station Depth Elevation

Earthquake Activity

City Distance Mag. Time & Date
Minimum magnitude displayed is 2.5.

Coastal Water Temperatures

Place Temperature

Stations

Nearby Weather Stations

Station Location Temp. Windchill Dew Point Humidity Wind Precip. Elev Updated Type
                   

Watches & Warnings

Lake Wind Advisory
Issued: 2:12 PM CST Feb. 7, 2016 – National Weather Service

... Lake Wind Advisory in effect from 6 am to 6 PM CST Monday...

The National Weather Service in Little Rock has issued a lake
Wind Advisory... which is in effect from 6 am to 6 PM CST Monday.

* Event... low pressure will bring a strong pressure gradient to
the area Monday morning resulting in strong northwest winds.

* Areas affected... this will affect much of Arkansas.

* Timing... the strongest winds will occur between 6 am and 6 PM
Monday.

* Winds... strong northwest winds of 15 to 25 mph will gust to 35
mph or more.

* Impacts... boaters need to use extra caution.
Additionally... winds this strong can make driving difficult at
times... especially for high profile vehicles.

Precautionary/preparedness actions...

A lake Wind Advisory indicates that winds will cause rough chop
on area lakes. Small boats will be especially prone to capsizing.



51